sensor_id;sensor_type;location;lat;lon;timestamp;temperature;humidity
19799;DHT22;10059;59.850;10.454;2023-04-25T00:02:12;3.80;99.90
19799;DHT22;10059;59.850;10.454;2023-04-25T00:04:41;3.80;99.90
19799;DHT22;10059;59.850;10.454;2023-04-25T00:07:09;3.80;99.90
19799;DHT22;10059;59.850;10.454;2023-04-25T00:09:36;3.80;99.90
19799;DHT22;10059;59.850;10.454;2023-04-25T00:12:03;3.80;99.90
19799;DHT22;10059;59.850;10.454;2023-04-25T00:14:30;3.80;99.90
19799;DHT22;10059;59.850;10.454;2023-04-25T00:16:59;3.70;99.90
19799;DHT22;10059;59.850;10.454;2023-04-25T00:19:26;3.70;99.90
19799;DHT22;10059;59.850;10.454;2023-04-25T00:21:55;3.80;99.90
19799;DHT22;10059;59.850;10.454;2023-04-25T00:24:22;3.80;99.90
19799;DHT22;10059;59.850;10.454;2023-04-25T00:26:49;3.80;99.90
19799;DHT22;10059;59.850;10.454;2023-04-25T00:29:15;3.70;99.90
19799;DHT22;10059;59.850;10.454;2023-04-25T00:31:42;3.60;99.90
19799;DHT22;10059;59.850;10.454;2023-04-25T00:34:09;3.60;99.90
19799;DHT22;10059;59.850;10.454;2023-04-25T00:36:36;3.70;99.90
19799;DHT22;10059;59.850;10.454;2023-04-25T00:39:04;3.60;99.90
19799;DHT22;10059;59.850;10.454;2023-04-25T00:41:32;3.70;99.90
19799;DHT22;10059;59.850;10.454;2023-04-25T00:44:01;3.70;99.90
19799;DHT22;10059;59.850;10.454;2023-04-25T00:46:29;3.70;99.90
19799;DHT22;10059;59.850;10.454;2023-04-25T00:48:56;3.60;99.90
19799;DHT22;10059;59.850;10.454;2023-04-25T00:51:23;3.50;99.90
19799;DHT22;10059;59.850;10.454;2023-04-25T00:53:52;3.60;99.90
19799;DHT22;10059;59.850;10.454;2023-04-25T00:56:21;3.70;99.90
19799;DHT22;10059;59.850;10.454;2023-04-25T00:58:48;3.60;99.90
19799;DHT22;10059;59.850;10.454;2023-04-25T01:01:16;3.70;99.90
19799;DHT22;10059;59.850;10.454;2023-04-25T01:03:44;3.70;99.90
19799;DHT22;10059;59.850;10.454;2023-04-25T01:06:13;3.50;99.90
19799;DHT22;10059;59.850;10.454;2023-04-25T01:08:40;3.50;99.90
19799;DHT22;10059;59.850;10.454;2023-04-25T01:11:07;3.60;99.90
19799;DHT22;10059;59.850;10.454;2023-04-25T01:13:35;3.60;99.90
19799;DHT22;10059;59.850;10.454;2023-04-25T01:16:03;3.50;99.90
19799;DHT22;10059;59.850;10.454;2023-04-25T01:18:30;3.30;99.90
19799;DHT22;10059;59.850;10.454;2023-04-25T01:21:02;3.40;99.90
19799;DHT22;10059;59.850;10.454;2023-04-25T01:23:31;3.40;99.90
19799;DHT22;10059;59.850;10.454;2023-04-25T01:25:59;3.30;99.90
19799;DHT22;10059;59.850;10.454;2023-04-25T01:28:26;3.40;99.90
19799;DHT22;10059;59.850;10.454;2023-04-25T01:30:53;3.40;99.90
19799;DHT22;10059;59.850;10.454;2023-04-25T01:33:21;3.30;99.90
19799;DHT22;10059;59.850;10.454;2023-04-25T01:35:48;3.40;99.90
19799;DHT22;10059;59.850;10.454;2023-04-25T01:38:16;3.40;99.90
19799;DHT22;10059;59.850;10.454;2023-04-25T01:40:45;3.40;99.90
19799;DHT22;10059;59.850;10.454;2023-04-25T01:43:12;3.40;99.90
19799;DHT22;10059;59.850;10.454;2023-04-25T01:45:40;3.50;99.90
19799;DHT22;10059;59.850;10.454;2023-04-25T01:48:06;3.40;99.90
19799;DHT22;10059;59.850;10.454;2023-04-25T01:50:34;3.40;99.90
19799;DHT22;10059;59.850;10.454;2023-04-25T01:53:00;3.40;99.90
19799;DHT22;10059;59.850;10.454;2023-04-25T01:55:29;3.30;99.90
19799;DHT22;10059;59.850;10.454;2023-04-25T01:57:56;3.20;99.90
19799;DHT22;10059;59.850;10.454;2023-04-25T02:00:24;3.20;99.90
19799;DHT22;10059;59.850;10.454;2023-04-25T02:02:50;3.10;99.90
19799;DHT22;10059;59.850;10.454;2023-04-25T02:05:19;3.10;99.90
19799;DHT22;10059;59.850;10.454;2023-04-25T02:07:46;3.20;99.90
19799;DHT22;10059;59.850;10.454;2023-04-25T02:10:13;3.20;99.90
19799;DHT22;10059;59.850;10.454;2023-04-25T02:12:41;3.10;99.90
19799;DHT22;10059;59.850;10.454;2023-04-25T02:15:09;3.00;99.90
19799;DHT22;10059;59.850;10.454;2023-04-25T02:17:36;2.90;99.90
19799;DHT22;10059;59.850;10.454;2023-04-25T02:20:03;2.90;99.90
19799;DHT22;10059;59.850;10.454;2023-04-25T02:22:30;2.90;99.90
19799;DHT22;10059;59.850;10.454;2023-04-25T02:24:59;2.90;99.90
19799;DHT22;10059;59.850;10.454;2023-04-25T02:27:26;2.80;99.90
19799;DHT22;10059;59.850;10.454;2023-04-25T02:29:54;2.90;99.90
19799;DHT22;10059;59.850;10.454;2023-04-25T02:32:21;2.80;99.90
19799;DHT22;10059;59.850;10.454;2023-04-25T02:34:48;2.90;99.90
19799;DHT22;10059;59.850;10.454;2023-04-25T02:37:15;2.80;99.90
19799;DHT22;10059;59.850;10.454;2023-04-25T02:39:41;2.80;99.90
19799;DHT22;10059;59.850;10.454;2023-04-25T02:42:08;2.80;99.90
19799;DHT22;10059;59.850;10.454;2023-04-25T02:44:35;2.90;99.90
19799;DHT22;10059;59.850;10.454;2023-04-25T02:47:03;2.90;99.90
19799;DHT22;10059;59.850;10.454;2023-04-25T02:49:30;3.00;99.90
19799;DHT22;10059;59.850;10.454;2023-04-25T02:51:57;2.90;99.90
19799;DHT22;10059;59.850;10.454;2023-04-25T02:54:24;2.80;99.90
19799;DHT22;10059;59.850;10.454;2023-04-25T02:56:51;2.80;99.90
19799;DHT22;10059;59.850;10.454;2023-04-25T02:59:18;2.80;99.90
19799;DHT22;10059;59.850;10.454;2023-04-25T03:01:44;2.70;99.90
19799;DHT22;10059;59.850;10.454;2023-04-25T03:04:13;2.80;99.90
19799;DHT22;10059;59.850;10.454;2023-04-25T03:06:40;2.80;99.90
19799;DHT22;10059;59.850;10.454;2023-04-25T03:09:07;2.80;99.90
19799;DHT22;10059;59.850;10.454;2023-04-25T03:11:34;2.70;99.90
19799;DHT22;10059;59.850;10.454;2023-04-25T03:14:01;2.70;99.90
19799;DHT22;10059;59.850;10.454;2023-04-25T03:16:28;2.70;99.90
19799;DHT22;10059;59.850;10.454;2023-04-25T03:18:55;2.70;99.90
19799;DHT22;10059;59.850;10.454;2023-04-25T03:21:23;2.80;99.90
19799;DHT22;10059;59.850;10.454;2023-04-25T03:23:50;2.80;99.90
19799;DHT22;10059;59.850;10.454;2023-04-25T03:26:17;2.80;99.90
19799;DHT22;10059;59.850;10.454;2023-04-25T03:28:44;2.70;99.90
19799;DHT22;10059;59.850;10.454;2023-04-25T03:31:11;2.70;99.90
19799;DHT22;10059;59.850;10.454;2023-04-25T03:33:37;2.70;99.90
19799;DHT22;10059;59.850;10.454;2023-04-25T03:36:05;2.70;99.90
19799;DHT22;10059;59.850;10.454;2023-04-25T03:38:33;2.60;99.90
19799;DHT22;10059;59.850;10.454;2023-04-25T03:41:00;2.60;99.90
19799;DHT22;10059;59.850;10.454;2023-04-25T03:43:27;2.60;99.90
19799;DHT22;10059;59.850;10.454;2023-04-25T03:45:54;2.60;99.90
19799;DHT22;10059;59.850;10.454;2023-04-25T03:48:21;2.60;99.90
19799;DHT22;10059;59.850;10.454;2023-04-25T03:50:50;2.60;99.90
19799;DHT22;10059;59.850;10.454;2023-04-25T03:53:17;2.70;99.90
19799;DHT22;10059;59.850;10.454;2023-04-25T03:55:45;2.70;99.90
19799;DHT22;10059;59.850;10.454;2023-04-25T03:58:12;2.70;99.90
19799;DHT22;10059;59.850;10.454;2023-04-25T04:00:38;2.60;99.90
19799;DHT22;10059;59.850;10.454;2023-04-25T04:03:05;2.60;99.90
19799;DHT22;10059;59.850;10.454;2023-04-25T04:05:32;2.60;99.90
19799;DHT22;10059;59.850;10.454;2023-04-25T04:07:59;2.50;99.90
19799;DHT22;10059;59.850;10.454;2023-04-25T04:10:26;2.60;99.90
19799;DHT22;10059;59.850;10.454;2023-04-25T04:12:54;2.60;99.90
19799;DHT22;10059;59.850;10.454;2023-04-25T04:15:21;2.60;99.90
19799;DHT22;10059;59.850;10.454;2023-04-25T04:17:48;2.70;99.90
19799;DHT22;10059;59.850;10.454;2023-04-25T04:20:15;2.70;99.90
19799;DHT22;10059;59.850;10.454;2023-04-25T04:22:41;2.70;99.90
19799;DHT22;10059;59.850;10.454;2023-04-25T04:25:09;2.70;99.90
19799;DHT22;10059;59.850;10.454;2023-04-25T04:27:37;2.70;99.90
19799;DHT22;10059;59.850;10.454;2023-04-25T04:30:07;2.60;99.90
19799;DHT22;10059;59.850;10.454;2023-04-25T04:32:34;2.60;99.90
19799;DHT22;10059;59.850;10.454;2023-04-25T04:35:03;2.70;99.90
19799;DHT22;10059;59.850;10.454;2023-04-25T04:37:32;2.60;99.90
19799;DHT22;10059;59.850;10.454;2023-04-25T04:39:59;2.60;99.90
19799;DHT22;10059;59.850;10.454;2023-04-25T04:42:26;2.60;99.90
19799;DHT22;10059;59.850;10.454;2023-04-25T04:44:53;2.60;99.90
19799;DHT22;10059;59.850;10.454;2023-04-25T04:47:22;2.50;99.90
19799;DHT22;10059;59.850;10.454;2023-04-25T04:49:49;2.50;99.90
19799;DHT22;10059;59.850;10.454;2023-04-25T04:52:15;2.50;99.90
19799;DHT22;10059;59.850;10.454;2023-04-25T04:54:42;2.40;99.90
19799;DHT22;10059;59.850;10.454;2023-04-25T04:57:09;2.40;99.90
19799;DHT22;10059;59.850;10.454;2023-04-25T04:59:36;2.40;99.90
19799;DHT22;10059;59.850;10.454;2023-04-25T05:02:03;2.40;99.90
19799;DHT22;10059;59.850;10.454;2023-04-25T05:04:31;2.40;99.90
19799;DHT22;10059;59.850;10.454;2023-04-25T05:06:58;2.40;99.90
19799;DHT22;10059;59.850;10.454;2023-04-25T05:09:25;2.30;99.90
19799;DHT22;10059;59.850;10.454;2023-04-25T05:11:52;2.30;99.90
19799;DHT22;10059;59.850;10.454;2023-04-25T05:14:19;2.30;99.90
19799;DHT22;10059;59.850;10.454;2023-04-25T05:16:45;2.30;99.90
19799;DHT22;10059;59.850;10.454;2023-04-25T05:19:13;2.40;99.90
19799;DHT22;10059;59.850;10.454;2023-04-25T05:21:41;2.30;99.90
19799;DHT22;10059;59.850;10.454;2023-04-25T05:24:08;2.40;99.90
19799;DHT22;10059;59.850;10.454;2023-04-25T05:26:35;2.50;99.90
19799;DHT22;10059;59.850;10.454;2023-04-25T05:29:02;2.40;99.90
19799;DHT22;10059;59.850;10.454;2023-04-25T05:31:29;2.50;99.90
19799;DHT22;10059;59.850;10.454;2023-04-25T05:33:56;2.50;99.90
19799;DHT22;10059;59.850;10.454;2023-04-25T05:36:22;2.50;99.90
19799;DHT22;10059;59.850;10.454;2023-04-25T05:38:51;2.40;99.90
19799;DHT22;10059;59.850;10.454;2023-04-25T05:41:17;2.40;99.90
19799;DHT22;10059;59.850;10.454;2023-04-25T05:43:44;2.40;99.90
19799;DHT22;10059;59.850;10.454;2023-04-25T05:46:14;2.40;99.90
19799;DHT22;10059;59.850;10.454;2023-04-25T05:48:41;2.40;99.90
19799;DHT22;10059;59.850;10.454;2023-04-25T05:51:07;2.30;99.90
19799;DHT22;10059;59.850;10.454;2023-04-25T05:53:35;2.40;99.90
19799;DHT22;10059;59.850;10.454;2023-04-25T05:56:03;2.30;99.90
19799;DHT22;10059;59.850;10.454;2023-04-25T05:58:30;2.40;99.90
19799;DHT22;10059;59.850;10.454;2023-04-25T06:00:57;2.50;99.90
19799;DHT22;10059;59.850;10.454;2023-04-25T06:03:24;2.40;99.90
19799;DHT22;10059;59.850;10.454;2023-04-25T06:05:50;2.30;99.90
19799;DHT22;10059;59.850;10.454;2023-04-25T06:08:17;2.50;99.90
19799;DHT22;10059;59.850;10.454;2023-04-25T06:10:44;2.40;99.90
19799;DHT22;10059;59.850;10.454;2023-04-25T06:13:12;2.50;99.90
19799;DHT22;10059;59.850;10.454;2023-04-25T06:15:39;2.40;99.90
19799;DHT22;10059;59.850;10.454;2023-04-25T06:18:06;2.50;99.90
19799;DHT22;10059;59.850;10.454;2023-04-25T06:20:33;2.30;99.90
19799;DHT22;10059;59.850;10.454;2023-04-25T06:23:00;2.30;99.90
19799;DHT22;10059;59.850;10.454;2023-04-25T06:25:27;2.30;99.90
19799;DHT22;10059;59.850;10.454;2023-04-25T06:27:54;2.30;99.90
19799;DHT22;10059;59.850;10.454;2023-04-25T06:30:22;2.40;99.90
19799;DHT22;10059;59.850;10.454;2023-04-25T06:32:51;2.50;99.90
19799;DHT22;10059;59.850;10.454;2023-04-25T06:35:18;2.40;99.90
19799;DHT22;10059;59.850;10.454;2023-04-25T06:37:45;2.50;99.90
19799;DHT22;10059;59.850;10.454;2023-04-25T06:40:12;2.50;99.90
19799;DHT22;10059;59.850;10.454;2023-04-25T06:42:39;2.50;99.90
19799;DHT22;10059;59.850;10.454;2023-04-25T06:45:06;2.50;99.90
19799;DHT22;10059;59.850;10.454;2023-04-25T06:47:35;2.60;99.90
19799;DHT22;10059;59.850;10.454;2023-04-25T06:50:02;2.50;99.90
19799;DHT22;10059;59.850;10.454;2023-04-25T06:52:29;2.50;99.90
19799;DHT22;10059;59.850;10.454;2023-04-25T06:54:56;2.50;99.90
19799;DHT22;10059;59.850;10.454;2023-04-25T06:57:23;2.40;99.90
19799;DHT22;10059;59.850;10.454;2023-04-25T06:59:50;2.40;99.90
19799;DHT22;10059;59.850;10.454;2023-04-25T07:02:16;2.40;99.90
19799;DHT22;10059;59.850;10.454;2023-04-25T07:04:45;2.40;99.90
19799;DHT22;10059;59.850;10.454;2023-04-25T07:07:11;2.30;99.90
19799;DHT22;10059;59.850;10.454;2023-04-25T07:09:38;2.40;99.90
19799;DHT22;10059;59.850;10.454;2023-04-25T07:12:05;2.40;99.90
19799;DHT22;10059;59.850;10.454;2023-04-25T07:14:32;2.40;99.90
19799;DHT22;10059;59.850;10.454;2023-04-25T07:16:59;2.50;99.90
19799;DHT22;10059;59.850;10.454;2023-04-25T07:19:26;2.50;99.90
19799;DHT22;10059;59.850;10.454;2023-04-25T07:21:56;2.40;99.90
19799;DHT22;10059;59.850;10.454;2023-04-25T07:24:23;2.50;99.90
19799;DHT22;10059;59.850;10.454;2023-04-25T07:26:50;2.40;99.90
19799;DHT22;10059;59.850;10.454;2023-04-25T07:29:17;2.60;99.90
19799;DHT22;10059;59.850;10.454;2023-04-25T07:31:43;2.60;99.90
19799;DHT22;10059;59.850;10.454;2023-04-25T07:34:10;2.60;99.90
19799;DHT22;10059;59.850;10.454;2023-04-25T07:36:37;2.60;99.90
19799;DHT22;10059;59.850;10.454;2023-04-25T07:39:05;2.60;99.90
19799;DHT22;10059;59.850;10.454;2023-04-25T07:41:34;2.60;99.90
19799;DHT22;10059;59.850;10.454;2023-04-25T07:44:01;2.60;99.90
19799;DHT22;10059;59.850;10.454;2023-04-25T07:46:28;2.70;99.90
19799;DHT22;10059;59.850;10.454;2023-04-25T07:48:55;2.60;99.90
19799;DHT22;10059;59.850;10.454;2023-04-25T07:51:21;2.70;99.90
19799;DHT22;10059;59.850;10.454;2023-04-25T07:53:48;2.60;99.90
19799;DHT22;10059;59.850;10.454;2023-04-25T07:56:16;2.60;99.90
19799;DHT22;10059;59.850;10.454;2023-04-25T07:58:43;2.70;99.90
19799;DHT22;10059;59.850;10.454;2023-04-25T08:01:10;2.70;99.90
19799;DHT22;10059;59.850;10.454;2023-04-25T08:03:37;2.80;99.90
19799;DHT22;10059;59.850;10.454;2023-04-25T08:06:04;2.90;99.90
19799;DHT22;10059;59.850;10.454;2023-04-25T08:08:31;3.00;99.90
19799;DHT22;10059;59.850;10.454;2023-04-25T08:10:58;3.00;99.90
19799;DHT22;10059;59.850;10.454;2023-04-25T08:13:26;3.10;99.90
19799;DHT22;10059;59.850;10.454;2023-04-25T08:15:53;3.20;99.90
19799;DHT22;10059;59.850;10.454;2023-04-25T08:18:20;3.20;99.90
19799;DHT22;10059;59.850;10.454;2023-04-25T08:20:47;3.20;99.90
19799;DHT22;10059;59.850;10.454;2023-04-25T08:23:13;3.20;99.90
19799;DHT22;10059;59.850;10.454;2023-04-25T08:25:40;3.20;99.90
19799;DHT22;10059;59.850;10.454;2023-04-25T08:28:07;3.20;99.90
19799;DHT22;10059;59.850;10.454;2023-04-25T08:30:36;3.20;99.90
19799;DHT22;10059;59.850;10.454;2023-04-25T08:33:03;3.30;99.90
19799;DHT22;10059;59.850;10.454;2023-04-25T08:35:30;3.20;99.90
19799;DHT22;10059;59.850;10.454;2023-04-25T08:37:58;3.30;99.90
19799;DHT22;10059;59.850;10.454;2023-04-25T08:40:27;3.10;99.90
19799;DHT22;10059;59.850;10.454;2023-04-25T08:42:57;3.10;99.90
19799;DHT22;10059;59.850;10.454;2023-04-25T08:45:25;3.00;99.90
19799;DHT22;10059;59.850;10.454;2023-04-25T08:47:56;3.00;99.90
19799;DHT22;10059;59.850;10.454;2023-04-25T08:50:24;3.20;99.90
19799;DHT22;10059;59.850;10.454;2023-04-25T08:52:53;3.40;99.90
19799;DHT22;10059;59.850;10.454;2023-04-25T08:55:21;3.50;99.90
19799;DHT22;10059;59.850;10.454;2023-04-25T08:57:49;3.60;99.90
19799;DHT22;10059;59.850;10.454;2023-04-25T09:00:17;3.80;99.90
19799;DHT22;10059;59.850;10.454;2023-04-25T09:02:45;3.80;99.90
19799;DHT22;10059;59.850;10.454;2023-04-25T09:05:14;3.90;99.90
19799;DHT22;10059;59.850;10.454;2023-04-25T09:07:41;3.90;99.90
19799;DHT22;10059;59.850;10.454;2023-04-25T09:10:09;4.00;99.90
19799;DHT22;10059;59.850;10.454;2023-04-25T09:12:36;3.90;99.90
19799;DHT22;10059;59.850;10.454;2023-04-25T09:15:05;3.90;99.90
19799;DHT22;10059;59.850;10.454;2023-04-25T09:17:32;3.90;99.90
19799;DHT22;10059;59.850;10.454;2023-04-25T09:20:06;4.10;99.90
19799;DHT22;10059;59.850;10.454;2023-04-25T09:22:36;4.10;99.90
19799;DHT22;10059;59.850;10.454;2023-04-25T09:25:07;4.00;99.90
19799;DHT22;10059;59.850;10.454;2023-04-25T09:27:34;4.10;99.90
19799;DHT22;10059;59.850;10.454;2023-04-25T09:30:02;4.20;99.90
19799;DHT22;10059;59.850;10.454;2023-04-25T09:32:29;4.30;99.90
19799;DHT22;10059;59.850;10.454;2023-04-25T09:34:57;4.40;99.90
19799;DHT22;10059;59.850;10.454;2023-04-25T09:37:25;4.40;99.90
19799;DHT22;10059;59.850;10.454;2023-04-25T09:39:55;4.40;99.90
19799;DHT22;10059;59.850;10.454;2023-04-25T09:42:25;4.70;99.90
19799;DHT22;10059;59.850;10.454;2023-04-25T09:44:53;4.80;99.90
19799;DHT22;10059;59.850;10.454;2023-04-25T09:47:21;4.80;99.90
19799;DHT22;10059;59.850;10.454;2023-04-25T09:49:49;4.70;99.90
19799;DHT22;10059;59.850;10.454;2023-04-25T09:52:18;4.90;99.90
19799;DHT22;10059;59.850;10.454;2023-04-25T09:54:45;4.90;99.90
19799;DHT22;10059;59.850;10.454;2023-04-25T09:57:15;5.00;99.90
19799;DHT22;10059;59.850;10.454;2023-04-25T09:59:44;4.90;99.90
19799;DHT22;10059;59.850;10.454;2023-04-25T10:02:12;4.80;99.90
19799;DHT22;10059;59.850;10.454;2023-04-25T10:04:39;4.80;99.90
19799;DHT22;10059;59.850;10.454;2023-04-25T10:07:08;4.90;99.90
19799;DHT22;10059;59.850;10.454;2023-04-25T10:09:37;5.10;99.90
19799;DHT22;10059;59.850;10.454;2023-04-25T10:12:05;5.30;99.90
19799;DHT22;10059;59.850;10.454;2023-04-25T10:14:35;5.30;99.90
19799;DHT22;10059;59.850;10.454;2023-04-25T10:17:02;5.20;99.90
19799;DHT22;10059;59.850;10.454;2023-04-25T10:19:29;5.40;99.90
19799;DHT22;10059;59.850;10.454;2023-04-25T10:22:04;5.60;99.90
19799;DHT22;10059;59.850;10.454;2023-04-25T10:24:31;5.70;99.90
19799;DHT22;10059;59.850;10.454;2023-04-25T10:26:58;5.80;99.90
19799;DHT22;10059;59.850;10.454;2023-04-25T10:29:27;5.80;99.90
19799;DHT22;10059;59.850;10.454;2023-04-25T10:31:55;5.80;99.90
19799;DHT22;10059;59.850;10.454;2023-04-25T10:34:38;5.60;99.90
19799;DHT22;10059;59.850;10.454;2023-04-25T10:37:08;5.70;99.90
19799;DHT22;10059;59.850;10.454;2023-04-25T10:39:35;5.30;99.90
19799;DHT22;10059;59.850;10.454;2023-04-25T10:42:04;5.20;99.90
19799;DHT22;10059;59.850;10.454;2023-04-25T10:44:31;5.10;99.90
19799;DHT22;10059;59.850;10.454;2023-04-25T10:47:01;4.90;99.90
19799;DHT22;10059;59.850;10.454;2023-04-25T10:49:30;4.90;99.90
19799;DHT22;10059;59.850;10.454;2023-04-25T10:52:14;4.70;99.90
19799;DHT22;10059;59.850;10.454;2023-04-25T10:54:42;4.90;99.90
19799;DHT22;10059;59.850;10.454;2023-04-25T10:57:26;4.90;99.90
19799;DHT22;10059;59.850;10.454;2023-04-25T10:59:53;4.90;99.90
19799;DHT22;10059;59.850;10.454;2023-04-25T11:02:21;4.90;99.90
19799;DHT22;10059;59.850;10.454;2023-04-25T11:04:53;5.00;99.90
19799;DHT22;10059;59.850;10.454;2023-04-25T11:07:26;4.90;99.90
19799;DHT22;10059;59.850;10.454;2023-04-25T11:09:55;4.60;99.90
19799;DHT22;10059;59.850;10.454;2023-04-25T11:12:24;4.60;99.90
19799;DHT22;10059;59.850;10.454;2023-04-25T11:14:58;4.60;99.90
19799;DHT22;10059;59.850;10.454;2023-04-25T11:17:28;4.70;99.90
19799;DHT22;10059;59.850;10.454;2023-04-25T11:19:55;5.00;99.90
19799;DHT22;10059;59.850;10.454;2023-04-25T11:22:23;4.80;99.90
19799;DHT22;10059;59.850;10.454;2023-04-25T11:24:50;4.90;99.90
19799;DHT22;10059;59.850;10.454;2023-04-25T11:27:17;4.80;99.90
19799;DHT22;10059;59.850;10.454;2023-04-25T11:29:44;4.80;99.90
19799;DHT22;10059;59.850;10.454;2023-04-25T11:32:14;4.60;99.90
19799;DHT22;10059;59.850;10.454;2023-04-25T11:34:43;4.60;99.90
19799;DHT22;10059;59.850;10.454;2023-04-25T11:37:10;4.70;99.90
19799;DHT22;10059;59.850;10.454;2023-04-25T11:39:43;4.60;99.90
19799;DHT22;10059;59.850;10.454;2023-04-25T11:42:10;4.80;99.90
19799;DHT22;10059;59.850;10.454;2023-04-25T11:44:38;4.80;99.90
19799;DHT22;10059;59.850;10.454;2023-04-25T11:47:05;4.60;99.90
19799;DHT22;10059;59.850;10.454;2023-04-25T11:49:32;4.70;99.90
19799;DHT22;10059;59.850;10.454;2023-04-25T11:52:00;4.80;99.90
19799;DHT22;10059;59.850;10.454;2023-04-25T11:54:27;4.80;99.90
19799;DHT22;10059;59.850;10.454;2023-04-25T11:56:54;4.90;99.90
19799;DHT22;10059;59.850;10.454;2023-04-25T11:59:24;5.00;99.90
19799;DHT22;10059;59.850;10.454;2023-04-25T12:01:52;5.20;99.90
19799;DHT22;10059;59.850;10.454;2023-04-25T12:04:20;5.20;99.90
19799;DHT22;10059;59.850;10.454;2023-04-25T12:06:48;5.10;99.90
19799;DHT22;10059;59.850;10.454;2023-04-25T12:09:18;5.10;99.90
19799;DHT22;10059;59.850;10.454;2023-04-25T12:11:47;4.90;99.90
19799;DHT22;10059;59.850;10.454;2023-04-25T12:14:21;4.90;99.90
19799;DHT22;10059;59.850;10.454;2023-04-25T12:16:50;4.70;99.90
19799;DHT22;10059;59.850;10.454;2023-04-25T12:19:18;4.80;99.90
19799;DHT22;10059;59.850;10.454;2023-04-25T12:21:46;5.00;99.90
19799;DHT22;10059;59.850;10.454;2023-04-25T12:24:14;5.20;99.90
19799;DHT22;10059;59.850;10.454;2023-04-25T12:26:50;5.20;99.90
19799;DHT22;10059;59.850;10.454;2023-04-25T12:29:19;5.40;99.90
19799;DHT22;10059;59.850;10.454;2023-04-25T12:31:45;5.30;99.90
19799;DHT22;10059;59.850;10.454;2023-04-25T12:34:12;5.60;99.90
19799;DHT22;10059;59.850;10.454;2023-04-25T12:36:40;5.50;99.90
19799;DHT22;10059;59.850;10.454;2023-04-25T12:39:06;5.50;99.90
19799;DHT22;10059;59.850;10.454;2023-04-25T12:41:33;5.90;99.90
19799;DHT22;10059;59.850;10.454;2023-04-25T12:44:01;6.00;99.90
19799;DHT22;10059;59.850;10.454;2023-04-25T12:46:28;5.90;99.90
19799;DHT22;10059;59.850;10.454;2023-04-25T12:48:55;6.00;99.90
19799;DHT22;10059;59.850;10.454;2023-04-25T12:51:22;6.00;99.90
19799;DHT22;10059;59.850;10.454;2023-04-25T12:53:51;6.00;99.90
19799;DHT22;10059;59.850;10.454;2023-04-25T12:56:18;6.20;99.90
19799;DHT22;10059;59.850;10.454;2023-04-25T12:58:45;6.30;99.90
19799;DHT22;10059;59.850;10.454;2023-04-25T13:01:14;6.30;99.90
19799;DHT22;10059;59.850;10.454;2023-04-25T13:03:41;6.40;99.90
19799;DHT22;10059;59.850;10.454;2023-04-25T13:06:08;6.00;99.90
19799;DHT22;10059;59.850;10.454;2023-04-25T13:08:35;6.20;99.90
19799;DHT22;10059;59.850;10.454;2023-04-25T13:11:03;6.20;99.90
19799;DHT22;10059;59.850;10.454;2023-04-25T13:13:30;6.30;99.90
19799;DHT22;10059;59.850;10.454;2023-04-25T13:15:59;6.30;99.90
19799;DHT22;10059;59.850;10.454;2023-04-25T13:18:29;6.20;99.90
19799;DHT22;10059;59.850;10.454;2023-04-25T13:20:56;6.30;99.90
19799;DHT22;10059;59.850;10.454;2023-04-25T13:23:24;6.10;99.90
19799;DHT22;10059;59.850;10.454;2023-04-25T13:25:51;6.40;99.90
19799;DHT22;10059;59.850;10.454;2023-04-25T13:28:18;6.70;99.90
19799;DHT22;10059;59.850;10.454;2023-04-25T13:30:45;7.10;99.90
19799;DHT22;10059;59.850;10.454;2023-04-25T13:33:13;7.10;99.90
19799;DHT22;10059;59.850;10.454;2023-04-25T13:35:42;7.10;99.90
19799;DHT22;10059;59.850;10.454;2023-04-25T13:38:08;7.20;99.90
19799;DHT22;10059;59.850;10.454;2023-04-25T13:40:35;7.10;99.90
19799;DHT22;10059;59.850;10.454;2023-04-25T13:43:02;7.20;99.90
19799;DHT22;10059;59.850;10.454;2023-04-25T13:45:29;7.20;99.90
19799;DHT22;10059;59.850;10.454;2023-04-25T13:47:56;7.10;99.90
19799;DHT22;10059;59.850;10.454;2023-04-25T13:50:23;7.20;99.90
19799;DHT22;10059;59.850;10.454;2023-04-25T13:52:51;7.10;99.90
19799;DHT22;10059;59.850;10.454;2023-04-25T13:55:18;7.10;99.90
19799;DHT22;10059;59.850;10.454;2023-04-25T13:57:45;7.10;99.90
19799;DHT22;10059;59.850;10.454;2023-04-25T14:00:13;7.30;99.90
19799;DHT22;10059;59.850;10.454;2023-04-25T14:02:42;7.40;99.90
19799;DHT22;10059;59.850;10.454;2023-04-25T14:05:09;7.60;99.90
19799;DHT22;10059;59.850;10.454;2023-04-25T14:07:36;7.40;99.90
19799;DHT22;10059;59.850;10.454;2023-04-25T14:10:05;7.50;99.90
19799;DHT22;10059;59.850;10.454;2023-04-25T14:12:33;7.40;99.90
19799;DHT22;10059;59.850;10.454;2023-04-25T14:15:00;7.10;99.90
19799;DHT22;10059;59.850;10.454;2023-04-25T14:17:27;7.00;99.90
19799;DHT22;10059;59.850;10.454;2023-04-25T14:19:54;6.90;99.90
19799;DHT22;10059;59.850;10.454;2023-04-25T14:22:20;6.80;99.90
19799;DHT22;10059;59.850;10.454;2023-04-25T14:24:47;6.90;99.90
19799;DHT22;10059;59.850;10.454;2023-04-25T14:27:15;7.00;99.90
19799;DHT22;10059;59.850;10.454;2023-04-25T14:29:42;6.80;99.90
19799;DHT22;10059;59.850;10.454;2023-04-25T14:32:09;6.70;99.90
19799;DHT22;10059;59.850;10.454;2023-04-25T14:34:36;6.30;99.90
19799;DHT22;10059;59.850;10.454;2023-04-25T14:37:03;6.60;99.90
19799;DHT22;10059;59.850;10.454;2023-04-25T14:39:30;6.30;99.90
19799;DHT22;10059;59.850;10.454;2023-04-25T14:41:56;6.40;99.90
19799;DHT22;10059;59.850;10.454;2023-04-25T14:44:25;6.30;99.90
19799;DHT22;10059;59.850;10.454;2023-04-25T14:46:51;6.40;99.90
19799;DHT22;10059;59.850;10.454;2023-04-25T14:49:18;6.60;99.90
19799;DHT22;10059;59.850;10.454;2023-04-25T14:51:46;6.90;99.90
19799;DHT22;10059;59.850;10.454;2023-04-25T14:54:12;6.90;99.90
19799;DHT22;10059;59.850;10.454;2023-04-25T14:56:39;6.90;99.90
19799;DHT22;10059;59.850;10.454;2023-04-25T14:59:06;7.10;99.90
19799;DHT22;10059;59.850;10.454;2023-04-25T15:01:34;7.40;99.90
19799;DHT22;10059;59.850;10.454;2023-04-25T15:04:02;7.50;99.90
19799;DHT22;10059;59.850;10.454;2023-04-25T15:06:29;7.50;99.90
19799;DHT22;10059;59.850;10.454;2023-04-25T15:08:55;7.50;99.90
19799;DHT22;10059;59.850;10.454;2023-04-25T15:11:23;7.50;99.90
19799;DHT22;10059;59.850;10.454;2023-04-25T15:13:50;7.10;99.90
19799;DHT22;10059;59.850;10.454;2023-04-25T15:16:17;7.00;99.90
19799;DHT22;10059;59.850;10.454;2023-04-25T15:18:45;7.20;99.90
19799;DHT22;10059;59.850;10.454;2023-04-25T15:21:12;6.90;99.90
19799;DHT22;10059;59.850;10.454;2023-04-25T15:23:39;6.70;99.90
19799;DHT22;10059;59.850;10.454;2023-04-25T15:26:06;6.60;99.90
19799;DHT22;10059;59.850;10.454;2023-04-25T15:28:32;6.40;99.90
19799;DHT22;10059;59.850;10.454;2023-04-25T15:31:00;6.40;99.90
19799;DHT22;10059;59.850;10.454;2023-04-25T15:33:27;6.40;99.90